KSPW/SPW METAR and TAF weather

Enter ICAO airport designator
Station Type Date Time Source
KSPW METAR 2019/08/22 06:53 UTC NOAA

KSPW 220653Z AUTO 00000KT 10SM CLR 12/11 A3009 RMK AO2 SLP187 T01220111


Station Type Date Time Source
KSPW Decoded METAR 2019/08/22 06:53 UTC NOAA

Station name not available
Aug 22, 2019 - 02:53 AM EDT / 2019.08.22 0653 UTC
Wind: Calm:0
Visibility: 10 mile(s):0
Sky conditions: clear
Temperature: 54.0 F (12.2 C)
Dew Point: 52.0 F (11.1 C)
Relative Humidity: 92%
Pressure (altimeter): 30.09 in. Hg (1018 hPa)
ob: KSPW 220653Z AUTO 00000KT 10SM CLR 12/11 A3009 RMK AO2 SLP187 T01220111
cycle: 7

Station Type Date Time Source
KSPW TAF UTC NOAA

Error!

Example: see airport list